Time;durP1;ratioP1;P1;durP2;ratioP2;P2;SDS_P1;SDS_P2;PMS_P1;PMS_P2;Temp;Humidity;BMP_temperature;BMP_pressure;BME280_temperature;BME280_humidity;BME280_pressure;Samples;Min_cycle;Max_cycle;Signal;HPM_P1;HPM_P2
2021/10/02 00:31:01;;;;;;;;;9.75;8.75;;;;;;;;5036474;28;45749;-86
2021/10/02 00:45:48;;;;;;;;;5.75;4.50;;;;;;;;5041955;28;45755;-86
2021/10/02 00:48:14;;;;;;;;;8.50;5.75;;;;;;;;5041931;28;45394;-86
2021/10/02 00:50:39;;;;;;;;;7.00;5.50;;;;;;;;5041740;28;45372;-86
2021/10/02 00:53:05;;;;;;;;;6.75;6.75;;;;;;;;5041402;28;45518;-86
2021/10/02 00:55:30;;;;;;;;;5.75;5.75;;;;;;;;5042355;28;45477;-86
2021/10/02 00:57:55;;;;;;;;;8.33;5.67;;;;;;;;5041690;28;45341;-86
2021/10/02 01:00:21;;;;;;;;;7.00;6.00;;;;;;;;5040503;28;45409;-86
2021/10/02 01:02:46;;;;;;;;;9.50;6.50;;;;;;;;5039940;28;45525;-86
2021/10/02 01:05:30;;;;;;;;;8.00;7.00;;;;;;;;5040322;28;46961;-86
2021/10/02 01:08:25;;;;;;;;;8.25;6.00;;;;;;;;5038951;28;45331;-85
2021/10/02 01:10:56;;;;;;;;;6.25;5.75;;;;;;;;5021601;28;45331;-86
2021/10/02 01:13:24;;;;;;;;;5.75;5.75;;;;;;;;5046908;28;45366;-86
2021/10/02 01:16:08;;;;;;;;;5.00;5.00;;;;;;;;5040075;28;46029;-86
2021/10/02 01:18:33;;;;;;;;;5.50;5.00;;;;;;;;5041022;28;45441;-87
2021/10/02 01:21:17;;;;;;;;;7.25;5.50;;;;;;;;5041029;28;45513;-86
2021/10/02 01:23:57;;;;;;;;;9.00;6.00;;;;;;;;5039432;28;45762;-86
2021/10/02 01:26:25;;;;;;;;;8.00;6.00;;;;;;;;5041291;28;46682;-86
2021/10/02 01:28:55;;;;;;;;;8.50;6.00;;;;;;;;5040949;28;45333;-85
2021/10/02 01:31:30;;;;;;;;;10.50;5.75;;;;;;;;5044605;28;45425;-84
2021/10/02 01:34:05;;;;;;;;;8.00;6.00;;;;;;;;5041428;28;45481;-85
2021/10/02 01:47:34;;;;;;;;;4.75;4.00;;;;;;;;5037969;28;45192;-85
2021/10/02 01:50:00;;;;;;;;;7.00;4.00;;;;;;;;5038608;28;45224;-85
2021/10/02 01:52:30;;;;;;;;;4.25;3.50;;;;;;;;5041659;28;45476;-85
2021/10/02 01:54:56;;;;;;;;;5.00;4.00;;;;;;;;5039714;28;45703;-85
2021/10/02 01:57:27;;;;;;;;;7.75;4.25;;;;;;;;5043682;28;45439;-85
2021/10/02 01:59:54;;;;;;;;;5.75;5.25;;;;;;;;5039388;28;45486;-85
2021/10/02 02:02:20;;;;;;;;;6.00;4.25;;;;;;;;5039129;28;45451;-85
2021/10/02 02:04:45;;;;;;;;;5.25;3.50;;;;;;;;5039473;28;45513;-85
2021/10/02 02:07:11;;;;;;;;;7.75;6.50;;;;;;;;5037265;28;47182;-85
2021/10/02 02:09:39;;;;;;;;;6.00;5.50;;;;;;;;5039187;28;45633;-85
2021/10/02 02:12:05;;;;;;;;;6.00;4.75;;;;;;;;5040631;28;45263;-85
2021/10/02 02:14:31;;;;;;;;;5.25;5.25;;;;;;;;5048641;28;45581;-85
2021/10/02 02:16:56;;;;;;;;;5.25;5.00;;;;;;;;5040090;28;46578;-85
2021/10/02 02:19:24;;;;;;;;;5.25;5.00;;;;;;;;5039891;28;45468;-85
2021/10/02 02:21:49;;;;;;;;;2.00;1.00;;;;;;;;5039006;28;45468;-86
2021/10/02 02:24:14;;;;;;;;;4.00;4.00;;;;;;;;5042848;28;45292;-85
2021/10/02 02:26:40;;;;;;;;;6.50;4.50;;;;;;;;5042328;28;47180;-85
2021/10/02 02:29:06;;;;;;;;;6.00;4.25;;;;;;;;5044416;28;45369;-84
2021/10/02 02:31:32;;;;;;;;;8.50;5.50;;;;;;;;5041550;28;45300;-84
2021/10/02 02:33:57;;;;;;;;;4.00;4.00;;;;;;;;5039343;28;45786;-85
2021/10/02 02:36:22;;;;;;;;;6.00;5.00;;;;;;;;5050491;28;45942;-84
2021/10/02 02:38:47;;;;;;;;;5.75;5.00;;;;;;;;5051279;28;45561;-85
2021/10/02 02:41:13;;;;;;;;;7.00;4.00;;;;;;;;5040302;28;45645;-84
2021/10/02 02:43:38;;;;;;;;;5.25;5.25;;;;;;;;5040011;28;45324;-85
2021/10/02 02:46:08;;;;;;;;;7.00;4.75;;;;;;;;5038581;28;48049;-85
2021/10/02 02:49:00;;;;;;;;;7.00;5.25;;;;;;;;5039622;28;45271;-85
2021/10/02 02:51:28;;;;;;;;;5.75;5.25;;;;;;;;5007825;28;45448;-84
2021/10/02 02:54:11;;;;;;;;;5.50;5.00;;;;;;;;5039134;28;45404;-86
2021/10/02 02:56:46;;;;;;;;;4.00;4.00;;;;;;;;5042607;28;47294;-85
2021/10/02 02:59:32;;;;;;;;;6.00;4.50;;;;;;;;5042602;28;45686;-86
2021/10/02 03:01:58;;;;;;;;;5.75;5.50;;;;;;;;5039560;28;45478;-86
2021/10/02 03:04:27;;;;;;;;;4.25;3.25;;;;;;;;5038128;28;45372;-85
2021/10/02 03:06:54;;;;;;;;;5.00;5.00;;;;;;;;5041612;28;47174;-86
2021/10/02 03:09:20;;;;;;;;;7.75;6.00;;;;;;;;5043686;28;45669;-86
2021/10/02 03:11:46;;;;;;;;;8.25;5.00;;;;;;;;5042278;28;45305;-86
2021/10/02 03:14:11;;;;;;;;;10.00;6.25;;;;;;;;5045075;28;45471;-86
2021/10/02 03:16:37;;;;;;;;;7.25;6.00;;;;;;;;5038529;28;47656;-86
2021/10/02 03:19:03;;;;;;;;;9.25;8.00;;;;;;;;5039392;28;45939;-86
2021/10/02 03:21:29;;;;;;;;;9.25;7.00;;;;;;;;5039481;28;45473;-85
2021/10/02 03:23:55;;;;;;;;;6.25;6.25;;;;;;;;5038933;28;45437;-86
2021/10/02 03:26:21;;;;;;;;;7.00;7.00;;;;;;;;5039063;28;45260;-86
2021/10/02 03:28:46;;;;;;;;;7.75;6.75;;;;;;;;5038083;28;45887;-86
2021/10/02 03:31:12;;;;;;;;;8.75;8.00;;;;;;;;5039543;28;45415;-86
2021/10/02 03:33:38;;;;;;;;;11.00;7.00;;;;;;;;5038740;28;45604;-85
2021/10/02 03:36:04;;;;;;;;;9.00;6.00;;;;;;;;5039262;28;45240;-86
2021/10/02 03:38:29;;;;;;;;;9.75;7.25;;;;;;;;5040207;28;45286;-86
2021/10/02 03:41:00;;;;;;;;;9.75;7.00;;;;;;;;5039700;28;45298;-86
2021/10/02 03:43:29;;;;;;;;;8.75;8.00;;;;;;;;5039374;28;45513;-86
2021/10/02 03:45:55;;;;;;;;;8.00;8.00;;;;;;;;5044598;28;45403;-85
2021/10/02 03:48:20;;;;;;;;;7.25;6.25;;;;;;;;5048645;28;45770;-85
2021/10/02 03:50:45;;;;;;;;;5.50;5.50;;;;;;;;5053355;28;45247;-85
2021/10/02 03:53:11;;;;;;;;;6.67;5.67;;;;;;;;5050145;28;45295;-86
2021/10/02 03:55:36;;;;;;;;;7.67;7.00;;;;;;;;5050224;28;45564;-85
2021/10/02 03:58:02;;;;;;;;;10.25;7.00;;;;;;;;5048367;28;45489;-86
2021/10/02 04:00:27;;;;;;;;;8.67;7.33;;;;;;;;5061505;28;45456;-86
2021/10/02 04:02:52;;;;;;;;;10.00;9.00;;;;;;;;5062532;28;44801;-85
2021/10/02 04:05:17;;;;;;;;;8.00;8.00;;;;;;;;5060688;28;47334;-86
2021/10/02 04:07:43;;;;;;;;;8.67;7.67;;;;;;;;5044188;28;45478;-86
2021/10/02 04:10:08;;;;;;;;;8.33;8.33;;;;;;;;5044662;28;45399;-86
2021/10/02 04:12:34;;;;;;;;;10.75;8.75;;;;;;;;5046334;28;45476;-86
2021/10/02 04:14:59;;;;;;;;;10.50;9.00;;;;;;;;5044533;28;45445;-86
2021/10/02 04:17:24;;;;;;;;;9.00;7.33;;;;;;;;5045210;28;45521;-86
2021/10/02 04:19:50;;;;;;;;;18.00;8.00;;;;;;;;5044680;28;45498;-86
2021/10/02 04:22:15;;;;;;;;;7.00;6.75;;;;;;;;5045533;28;45381;-86
2021/10/02 04:24:40;;;;;;;;;11.67;10.00;;;;;;;;5045470;28;45458;-86
2021/10/02 04:27:06;;;;;;;;;11.00;10.00;;;;;;;;5045339;28;44908;-86
2021/10/02 04:29:31;;;;;;;;;13.25;10.75;;;;;;;;5055644;28;45445;-86
2021/10/02 04:31:56;;;;;;;;;12.00;11.00;;;;;;;;5048969;28;45442;-85
2021/10/02 04:34:22;;;;;;;;;14.50;9.00;;;;;;;;5044529;28;48027;-85
2021/10/02 04:36:47;;;;;;;;;13.75;9.25;;;;;;;;5045898;28;45343;-85
2021/10/02 04:39:13;;;;;;;;;11.75;10.00;;;;;;;;5044219;28;45386;-85
2021/10/02 04:41:38;;;;;;;;;14.50;9.75;;;;;;;;5045099;28;45260;-85
2021/10/02 04:44:03;;;;;;;;;13.33;8.00;;;;;;;;5043945;28;46944;-85
2021/10/02 04:46:29;;;;;;;;;10.50;9.25;;;;;;;;5045139;28;45279;-86
2021/10/02 04:48:54;;;;;;;;;8.00;8.00;;;;;;;;5045308;28;45383;-85
2021/10/02 04:51:19;;;;;;;;;8.33;7.33;;;;;;;;5045090;28;45356;-86
2021/10/02 04:53:45;;;;;;;;;7.75;7.00;;;;;;;;5043669;28;45999;-85
2021/10/02 04:56:13;;;;;;;;;9.50;7.50;;;;;;;;5046117;28;45418;-85
2021/10/02 04:58:39;;;;;;;;;11.50;9.00;;;;;;;;5041870;28;45296;-86
2021/10/02 05:01:07;;;;;;;;;8.25;8.00;;;;;;;;5040643;28;45825;-85
2021/10/02 05:03:33;;;;;;;;;9.25;9.00;;;;;;;;5040219;28;48106;-85
2021/10/02 05:05:59;;;;;;;;;12.25;10.00;;;;;;;;5042026;28;45416;-85
2021/10/02 05:08:25;;;;;;;;;8.00;8.00;;;;;;;;5042588;28;45436;-86
2021/10/02 05:10:50;;;;;;;;;11.00;8.00;;;;;;;;5046009;28;45298;-86
2021/10/02 05:13:15;;;;;;;;;8.00;7.00;;;;;;;;5044048;28;45441;-86
2021/10/02 05:15:41;;;;;;;;;8.33;7.33;;;;;;;;5040201;28;45304;-86
2021/10/02 05:18:06;;;;;;;;;9.75;8.75;;;;;;;;5041735;28;45374;-85
2021/10/02 05:20:32;;;;;;;;;11.75;8.00;;;;;;;;5041762;28;45398;-86
2021/10/02 05:22:57;;;;;;;;;6.75;6.75;;;;;;;;5041345;28;46309;-86
2021/10/02 05:25:22;;;;;;;;;10.33;8.67;;;;;;;;5040530;28;45394;-86
2021/10/02 05:27:48;;;;;;;;;10.00;9.00;;;;;;;;5038691;28;45499;-86
2021/10/02 05:30:13;;;;;;;;;11.50;8.50;;;;;;;;5041135;28;45475;-86
2021/10/02 05:32:38;;;;;;;;;10.25;8.50;;;;;;;;5040760;28;45994;-86
2021/10/02 05:35:04;;;;;;;;;12.75;9.50;;;;;;;;5046643;28;45340;-86
2021/10/02 05:37:29;;;;;;;;;9.00;7.00;;;;;;;;5039226;28;45451;-86
2021/10/02 05:39:54;;;;;;;;;12.00;8.67;;;;;;;;5040190;28;45634;-85
2021/10/02 05:42:19;;;;;;;;;7.50;7.00;;;;;;;;5038075;28;47452;-87
2021/10/02 05:44:45;;;;;;;;;6.25;6.25;;;;;;;;5041293;28;45512;-87
2021/10/02 05:47:10;;;;;;;;;6.67;6.00;;;;;;;;5041587;28;45430;-85
2021/10/02 05:49:35;;;;;;;;;8.00;7.67;;;;;;;;5041876;28;45794;-85
2021/10/02 05:52:00;;;;;;;;;12.00;7.00;;;;;;;;5043276;28;46402;-86
2021/10/02 05:54:26;;;;;;;;;7.50;7.00;;;;;;;;5037907;28;45417;-86
2021/10/02 05:56:51;;;;;;;;;14.00;9.00;;;;;;;;5041368;28;45500;-85
2021/10/02 05:59:16;;;;;;;;;7.00;6.67;;;;;;;;5040952;28;45528;-85
2021/10/02 06:01:42;;;;;;;;;7.75;6.00;;;;;;;;5040832;28;45275;-85
2021/10/02 06:04:07;;;;;;;;;9.00;6.75;;;;;;;;5040801;28;45295;-86
2021/10/02 06:06:32;;;;;;;;;8.33;6.00;;;;;;;;5040538;28;45386;-86
2021/10/02 06:08:57;;;;;;;;;7.25;6.25;;;;;;;;5040498;28;45473;-85
2021/10/02 06:11:23;;;;;;;;;6.25;5.00;;;;;;;;5044228;28;46384;-86
2021/10/02 06:13:48;;;;;;;;;7.00;5.25;;;;;;;;5041964;28;45851;-85
2021/10/02 06:16:14;;;;;;;;;6.25;6.25;;;;;;;;5040353;28;45180;-85
2021/10/02 06:18:39;;;;;;;;;7.75;6.25;;;;;;;;5038915;28;45804;-85
2021/10/02 06:21:07;;;;;;;;;6.00;5.00;;;;;;;;5039908;28;45377;-85
2021/10/02 06:23:32;;;;;;;;;9.50;5.25;;;;;;;;5040790;28;45422;-85
2021/10/02 06:25:57;;;;;;;;;5.50;4.00;;;;;;;;5041332;28;45481;-86
2021/10/02 06:28:22;;;;;;;;;5.00;3.00;;;;;;;;5044023;28;45320;-85
2021/10/02 06:30:48;;;;;;;;;8.00;4.75;;;;;;;;5057965;28;45921;-85
2021/10/02 06:33:13;;;;;;;;;5.25;3.00;;;;;;;;5043508;28;45457;-85
2021/10/02 06:35:38;;;;;;;;;4.00;2.25;;;;;;;;5041051;28;45426;-86
2021/10/02 06:38:04;;;;;;;;;6.00;2.25;;;;;;;;5038756;28;45575;-85
2021/10/02 06:40:29;;;;;;;;;4.75;2.25;;;;;;;;5038310;28;46340;-85
2021/10/02 06:42:55;;;;;;;;;3.00;3.00;;;;;;;;5040776;28;45522;-86
2021/10/02 06:45:20;;;;;;;;;5.25;3.00;;;;;;;;5040461;28;45347;-87
2021/10/02 06:47:45;;;;;;;;;2.00;2.00;;;;;;;;5040013;28;45410;-85
2021/10/02 06:50:11;;;;;;;;;2.00;2.00;;;;;;;;5048527;28;46651;-86
2021/10/02 06:52:36;;;;;;;;;4.67;3.00;;;;;;;;5039421;28;45366;-85
2021/10/02 06:55:01;;;;;;;;;3.00;3.00;;;;;;;;5038283;28;45412;-85
2021/10/02 06:57:26;;;;;;;;;5.00;3.25;;;;;;;;5039867;28;45535;-85
2021/10/02 06:59:52;;;;;;;;;3.00;1.33;;;;;;;;5039328;28;46758;-85
2021/10/02 07:02:17;;;;;;;;;5.00;2.00;;;;;;;;5037843;28;45327;-85
2021/10/02 07:04:44;;;;;;;;;2.75;2.00;;;;;;;;5037816;28;45455;-85
2021/10/02 07:07:10;;;;;;;;;3.00;3.00;;;;;;;;5041613;28;45354;-86
2021/10/02 07:09:35;;;;;;;;;3.33;2.00;;;;;;;;5039647;28;46106;-85
2021/10/02 07:12:00;;;;;;;;;4.33;2.67;;;;;;;;5036085;28;45263;-86
2021/10/02 07:14:26;;;;;;;;;3.00;3.00;;;;;;;;5043582;28;45671;-86
2021/10/02 07:16:51;;;;;;;;;3.50;3.00;;;;;;;;5042005;28;46078;-86
2021/10/02 07:19:17;;;;;;;;;2.75;2.25;;;;;;;;5040048;28;46311;-86
2021/10/02 07:21:42;;;;;;;;;5.00;3.00;;;;;;;;5040326;28;46533;-86
2021/10/02 07:24:08;;;;;;;;;8.25;3.00;;;;;;;;5039127;28;45406;-83
2021/10/02 07:26:33;;;;;;;;;5.75;3.00;;;;;;;;5042782;28;45375;-88
2021/10/02 07:28:59;;;;;;;;;3.75;1.50;;;;;;;;5035562;28;46960;-88
2021/10/02 07:31:24;;;;;;;;;6.00;3.00;;;;;;;;5039215;28;45525;-87
2021/10/02 07:33:50;;;;;;;;;5.00;2.25;;;;;;;;5042687;28;45432;-87
2021/10/02 07:36:16;;;;;;;;;6.00;2.00;;;;;;;;5039486;28;45807;-85
2021/10/02 07:38:41;;;;;;;;;3.00;2.25;;;;;;;;5041014;28;47663;-86
2021/10/02 07:41:07;;;;;;;;;7.00;2.00;;;;;;;;5037382;28;45914;-87
2021/10/02 07:43:34;;;;;;;;;4.00;2.00;;;;;;;;5039161;28;45470;-89
2021/10/02 07:46:00;;;;;;;;;4.00;3.00;;;;;;;;5042980;28;45817;-87
2021/10/02 07:48:26;;;;;;;;;3.75;2.75;;;;;;;;5042391;28;48248;-84
2021/10/02 07:50:55;;;;;;;;;7.75;3.50;;;;;;;;5040810;28;45297;-84
2021/10/02 07:53:21;;;;;;;;;4.75;2.75;;;;;;;;5043412;28;45435;-83
2021/10/02 07:55:48;;;;;;;;;3.00;3.00;;;;;;;;5040132;28;45445;-85
2021/10/02 07:58:14;;;;;;;;;2.00;2.00;;;;;;;;5040149;28;45781;-88
2021/10/02 08:00:39;;;;;;;;;3.50;2.75;;;;;;;;5035519;28;45362;-87
2021/10/02 08:03:04;;;;;;;;;3.75;2.75;;;;;;;;5039215;28;45399;-86
2021/10/02 08:05:30;;;;;;;;;4.25;3.00;;;;;;;;5037805;28;45393;-87
2021/10/02 08:07:55;;;;;;;;;2.00;2.00;;;;;;;;5038775;28;47003;-87
2021/10/02 08:10:25;;;;;;;;;4.00;2.75;;;;;;;;5038878;28;45325;-86
2021/10/02 08:12:50;;;;;;;;;2.25;2.00;;;;;;;;5038107;28;45684;-86
2021/10/02 08:15:16;;;;;;;;;3.00;3.00;;;;;;;;5038941;28;45798;-86
2021/10/02 08:17:42;;;;;;;;;3.50;3.25;;;;;;;;5037405;28;45432;-89
2021/10/02 08:20:09;;;;;;;;;5.75;2.00;;;;;;;;5038587;28;45660;-89
2021/10/02 08:22:39;;;;;;;;;3.75;1.75;;;;;;;;5036502;28;45250;-89
2021/10/02 08:25:05;;;;;;;;;4.00;2.00;;;;;;;;5040092;28;45519;-90
2021/10/02 08:27:30;;;;;;;;;6.00;2.00;;;;;;;;5037931;28;47165;-88
2021/10/02 08:29:56;;;;;;;;;6.50;3.00;;;;;;;;5043979;28;45492;-89
2021/10/02 08:32:22;;;;;;;;;3.75;2.00;;;;;;;;5054448;28;45507;-88
2021/10/02 08:34:47;;;;;;;;;3.75;2.50;;;;;;;;5053684;28;45524;-90
2021/10/02 08:37:13;;;;;;;;;7.25;4.00;;;;;;;;5046177;28;48359;-89
2021/10/02 08:39:38;;;;;;;;;5.00;3.00;;;;;;;;5045744;28;45362;-89
2021/10/02 08:42:04;;;;;;;;;3.50;3.25;;;;;;;;5050142;28;45284;-89
2021/10/02 08:44:29;;;;;;;;;3.25;2.00;;;;;;;;5037045;28;45554;-90
2021/10/02 08:46:55;;;;;;;;;3.25;3.25;;;;;;;;5054912;28;45481;-89
2021/10/02 08:49:29;;;;;;;;;7.00;3.75;;;;;;;;5048843;28;44863;-90
2021/10/02 08:51:55;;;;;;;;;3.25;1.50;;;;;;;;5044803;28;45454;-90
2021/10/02 08:54:21;;;;;;;;;4.25;2.50;;;;;;;;5035463;28;46018;-91
2021/10/02 08:56:48;;;;;;;;;3.50;3.50;;;;;;;;5040122;28;47057;-90
2021/10/02 08:59:14;;;;;;;;;5.00;2.50;;;;;;;;5046160;28;44795;-91
2021/10/02 09:01:40;;;;;;;;;3.50;2.75;;;;;;;;5039437;28;45398;-87
2021/10/02 09:04:05;;;;;;;;;7.00;4.00;;;;;;;;5066183;28;45415;-83
2021/10/02 09:06:32;;;;;;;;;4.50;3.00;;;;;;;;5060486;28;46357;-88
2021/10/02 09:08:58;;;;;;;;;5.50;3.00;;;;;;;;5050858;28;45322;-86
2021/10/02 09:11:24;;;;;;;;;13.00;3.00;;;;;;;;5057705;28;44713;-86
2021/10/02 09:13:49;;;;;;;;;4.25;3.00;;;;;;;;5053458;28;45335;-86
2021/10/02 09:16:14;;;;;;;;;4.25;1.50;;;;;;;;5051501;28;46552;-86
2021/10/02 09:18:40;;;;;;;;;6.00;3.75;;;;;;;;5050902;28;45326;-86
2021/10/02 09:21:06;;;;;;;;;10.50;7.25;;;;;;;;5048095;28;45745;-86
2021/10/02 09:23:38;;;;;;;;;8.75;6.25;;;;;;;;5045098;28;45304;-86
2021/10/02 09:26:05;;;;;;;;;6.50;3.50;;;;;;;;5042268;28;45529;-86
2021/10/02 09:28:38;;;;;;;;;5.00;3.25;;;;;;;;5041468;28;45466;-86
2021/10/02 09:31:04;;;;;;;;;1.50;1.50;;;;;;;;5042051;28;45360;-86
2021/10/02 09:33:29;;;;;;;;;2.50;2.50;;;;;;;;5041152;28;45391;-86
2021/10/02 09:35:54;;;;;;;;;5.25;4.25;;;;;;;;5039556;28;47133;-86
2021/10/02 09:38:20;;;;;;;;;6.75;4.75;;;;;;;;5041185;28;45313;-86
2021/10/02 09:40:55;;;;;;;;;5.00;5.00;;;;;;;;5042183;28;45293;-86
2021/10/02 09:43:21;;;;;;;;;6.50;4.00;;;;;;;;5038867;28;45797;-86
2021/10/02 09:45:47;;;;;;;;;4.00;4.00;;;;;;;;5041520;28;45950;-86
2021/10/02 09:48:14;;;;;;;;;5.75;3.50;;;;;;;;5050705;28;46027;-86
2021/10/02 09:50:46;;;;;;;;;3.00;2.75;;;;;;;;5042368;28;45372;-86
2021/10/02 09:53:16;;;;;;;;;2.75;2.75;;;;;;;;5040892;28;45470;-86
2021/10/02 09:55:44;;;;;;;;;3.25;3.00;;;;;;;;5044318;28;45422;-86
2021/10/02 09:58:29;;;;;;;;;4.50;2.75;;;;;;;;5048233;28;45409;-86
2021/10/02 10:00:55;;;;;;;;;5.00;3.00;;;;;;;;5053647;28;45348;-86
2021/10/02 10:03:21;;;;;;;;;3.75;2.00;;;;;;;;5048530;28;45347;-86
2021/10/02 10:05:47;;;;;;;;;3.25;3.25;;;;;;;;5041939;28;46211;-86
2021/10/02 10:08:32;;;;;;;;;6.50;4.50;;;;;;;;5040500;28;45460;-86
2021/10/02 10:11:05;;;;;;;;;5.50;4.00;;;;;;;;5041788;28;45482;-86
2021/10/02 10:13:30;;;;;;;;;3.50;2.00;;;;;;;;5041937;28;45438;-86
2021/10/02 10:15:57;;;;;;;;;3.00;3.00;;;;;;;;5041092;28;47155;-86
2021/10/02 10:18:30;;;;;;;;;3.00;3.00;;;;;;;;5041948;28;45507;-86
2021/10/02 10:20:57;;;;;;;;;2.25;1.50;;;;;;;;5041767;28;45264;-86
2021/10/02 10:23:30;;;;;;;;;12.75;7.00;;;;;;;;5040192;28;45528;-86
2021/10/02 10:25:57;;;;;;;;;2.00;2.00;;;;;;;;5041133;28;47191;-86
2021/10/02 10:28:24;;;;;;;;;3.75;3.00;;;;;;;;5047324;28;45711;-86
2021/10/02 10:30:50;;;;;;;;;7.00;4.25;;;;;;;;5050507;28;45345;-84
2021/10/02 10:33:17;;;;;;;;;4.75;3.00;;;;;;;;5040466;28;45379;-84
2021/10/02 10:35:45;;;;;;;;;5.50;2.00;;;;;;;;5042015;28;45430;-84
2021/10/02 10:38:14;;;;;;;;;4.75;4.25;;;;;;;;5050208;28;45221;-84
2021/10/02 10:40:40;;;;;;;;;3.50;3.00;;;;;;;;5045085;28;45402;-85
2021/10/02 10:43:05;;;;;;;;;6.75;4.50;;;;;;;;5045564;28;45460;-85
2021/10/02 10:45:31;;;;;;;;;3.50;1.25;;;;;;;;5043949;28;45500;-85
2021/10/02 10:47:56;;;;;;;;;2.00;2.00;;;;;;;;5045677;28;45301;-85
2021/10/02 10:50:22;;;;;;;;;2.75;1.75;;;;;;;;5044856;28;45385;-85
2021/10/02 10:52:48;;;;;;;;;3.00;1.00;;;;;;;;5043001;28;45266;-84
2021/10/02 10:55:22;;;;;;;;;3.00;2.00;;;;;;;;5040926;28;48391;-84
2021/10/02 10:57:48;;;;;;;;;2.00;2.00;;;;;;;;5034777;28;45262;-85
2021/10/02 11:00:21;;;;;;;;;5.00;2.00;;;;;;;;5043043;28;45281;-85
2021/10/02 11:02:52;;;;;;;;;4.50;2.25;;;;;;;;5048249;28;46420;-84
2021/10/02 11:05:35;;;;;;;;;3.75;3.00;;;;;;;;5053330;28;45453;-84
2021/10/02 11:08:01;;;;;;;;;4.00;3.00;;;;;;;;5041070;28;45260;-84
2021/10/02 11:10:44;;;;;;;;;9.00;7.00;;;;;;;;5043792;28;45268;-84
2021/10/02 11:13:14;;;;;;;;;2.00;2.00;;;;;;;;5049104;28;45729;-85
2021/10/02 11:15:41;;;;;;;;;4.00;3.00;;;;;;;;5045657;28;45418;-85
2021/10/02 11:18:26;;;;;;;;;2.75;2.75;;;;;;;;5042991;28;45308;-86
2021/10/02 11:21:01;;;;;;;;;8.00;5.00;;;;;;;;5044978;28;45530;-85
2021/10/02 11:23:42;;;;;;;;;5.75;3.00;;;;;;;;5046180;28;45506;-85
2021/10/02 11:26:13;;;;;;;;;7.00;4.75;;;;;;;;5044782;28;45436;-85
2021/10/02 11:28:39;;;;;;;;;4.75;2.50;;;;;;;;5044936;28;45553;-85
2021/10/02 11:31:12;;;;;;;;;4.25;2.25;;;;;;;;5044340;28;45347;-85
2021/10/02 11:33:46;;;;;;;;;4.50;2.50;;;;;;;;5044991;28;44814;-85
2021/10/02 11:36:32;;;;;;;;;3.75;3.75;;;;;;;;5042249;28;46230;-86
2021/10/02 11:39:13;;;;;;;;;2.00;2.00;;;;;;;;5047154;28;46244;-85
2021/10/02 11:41:41;;;;;;;;;4.00;2.00;;;;;;;;5043058;28;45331;-84
2021/10/02 11:44:08;;;;;;;;;5.50;4.00;;;;;;;;5046462;28;45450;-84
2021/10/02 11:46:34;;;;;;;;;0.00;0.00;;;;;;;;5048682;28;45220;-85
2021/10/02 11:49:19;;;;;;;;;12.25;9.00;;;;;;;;5063307;28;45141;-85
2021/10/02 11:52:03;;;;;;;;;5.75;3.25;;;;;;;;5051587;28;45324;-84
2021/10/02 11:54:28;;;;;;;;;5.25;2.25;;;;;;;;5045356;28;45511;-84
2021/10/02 11:57:14;;;;;;;;;5.00;4.25;;;;;;;;5056406;28;47111;-85
2021/10/02 11:59:46;;;;;;;;;4.75;4.00;;;;;;;;5045515;28;45178;-85
2021/10/02 12:02:12;;;;;;;;;4.25;3.00;;;;;;;;5042232;28;45447;-84
2021/10/02 12:04:38;;;;;;;;;5.75;4.75;;;;;;;;5050590;28;45559;-85
2021/10/02 12:07:03;;;;;;;;;13.00;6.50;;;;;;;;5060976;28;45388;-84
2021/10/02 12:09:29;;;;;;;;;4.00;2.50;;;;;;;;5053807;28;45355;-84
2021/10/02 12:11:56;;;;;;;;;3.25;3.25;;;;;;;;5052433;28;45427;-84
2021/10/02 12:14:22;;;;;;;;;4.50;3.75;;;;;;;;5055215;28;45459;-84
2021/10/02 12:16:53;;;;;;;;;3.25;3.00;;;;;;;;5060006;28;45406;-84
2021/10/02 12:19:21;;;;;;;;;5.50;4.75;;;;;;;;5052100;28;45464;-86
2021/10/02 12:21:46;;;;;;;;;6.25;4.00;;;;;;;;5052423;28;45412;-86
2021/10/02 12:24:18;;;;;;;;;7.50;4.50;;;;;;;;5052778;28;45201;-85
2021/10/02 12:26:45;;;;;;;;;7.75;4.75;;;;;;;;5056270;28;46949;-84
2021/10/02 12:29:11;;;;;;;;;2.75;2.75;;;;;;;;5047380;28;45955;-85
2021/10/02 12:31:39;;;;;;;;;3.25;3.00;;;;;;;;5034615;28;45852;-84
2021/10/02 12:34:09;;;;;;;;;3.00;3.00;;;;;;;;5043256;28;45659;-86
2021/10/02 12:36:38;;;;;;;;;6.75;3.25;;;;;;;;5036227;28;46960;-84
2021/10/02 12:39:03;;;;;;;;;4.25;3.50;;;;;;;;5041127;28;45546;-85
2021/10/02 12:41:35;;;;;;;;;5.00;3.00;;;;;;;;5053731;28;45516;-85
2021/10/02 12:44:01;;;;;;;;;4.75;3.25;;;;;;;;5046925;28;45328;-85
2021/10/02 12:46:27;;;;;;;;;5.50;3.75;;;;;;;;5049733;28;45270;-85
2021/10/02 12:48:52;;;;;;;;;6.75;4.50;;;;;;;;5047193;28;45458;-85
2021/10/02 12:51:17;;;;;;;;;4.67;4.67;;;;;;;;5049570;28;45428;-85
2021/10/02 12:53:43;;;;;;;;;4.25;3.00;;;;;;;;5051370;28;45437;-86
2021/10/02 12:56:18;;;;;;;;;3.75;1.75;;;;;;;;5054380;28;47064;-86
2021/10/02 12:58:43;;;;;;;;;3.00;3.00;;;;;;;;5049345;28;45622;-85
2021/10/02 13:01:18;;;;;;;;;7.25;4.00;;;;;;;;5044823;28;45405;-89
2021/10/02 13:03:44;;;;;;;;;9.25;3.75;;;;;;;;5039807;28;44825;-87
2021/10/02 13:06:09;;;;;;;;;4.25;3.50;;;;;;;;5043691;28;47955;-87
2021/10/02 13:08:35;;;;;;;;;4.00;4.00;;;;;;;;5056786;28;45429;-87
2021/10/02 13:11:00;;;;;;;;;3.50;3.00;;;;;;;;5052703;28;45487;-87
2021/10/02 13:13:26;;;;;;;;;5.50;3.50;;;;;;;;5054869;28;46482;-86
2021/10/02 13:15:52;;;;;;;;;5.25;2.50;;;;;;;;5046539;28;48073;-87
2021/10/02 13:18:19;;;;;;;;;6.00;5.00;;;;;;;;5041096;28;45722;-86
2021/10/02 13:20:47;;;;;;;;;7.50;4.75;;;;;;;;5042605;28;45430;-86
2021/10/02 13:23:15;;;;;;;;;4.75;3.25;;;;;;;;5041434;28;45478;-86
2021/10/02 13:25:42;;;;;;;;;4.00;3.75;;;;;;;;5055223;28;45474;-86
2021/10/02 13:28:18;;;;;;;;;4.50;3.00;;;;;;;;5049923;28;45570;-83
2021/10/02 13:30:43;;;;;;;;;4.50;2.50;;;;;;;;5058720;28;45398;-85
2021/10/02 13:33:12;;;;;;;;;5.75;3.25;;;;;;;;5064347;28;45406;-86
2021/10/02 13:35:40;;;;;;;;;4.75;3.00;;;;;;;;5053484;28;47662;-85
2021/10/02 13:38:07;;;;;;;;;4.25;3.25;;;;;;;;5044888;28;45535;-86
2021/10/02 13:40:34;;;;;;;;;4.75;3.50;;;;;;;;5043081;28;45316;-85
2021/10/02 13:43:00;;;;;;;;;5.50;3.00;;;;;;;;5042907;28;45528;-86
2021/10/02 13:45:30;;;;;;;;;5.75;4.75;;;;;;;;5043409;28;45699;-85
2021/10/02 13:47:57;;;;;;;;;6.50;5.00;;;;;;;;5045907;28;45526;-86
2021/10/02 13:50:23;;;;;;;;;6.00;4.25;;;;;;;;5037768;28;45973;-86
2021/10/02 13:52:48;;;;;;;;;5.75;3.50;;;;;;;;5048304;28;45609;-86
2021/10/02 13:55:14;;;;;;;;;3.25;1.75;;;;;;;;5043428;28;46782;-87
2021/10/02 13:57:42;;;;;;;;;2.00;1.50;;;;;;;;5039771;28;45734;-86
2021/10/02 14:00:07;;;;;;;;;6.25;5.00;;;;;;;;5048274;28;45436;-86
2021/10/02 14:02:33;;;;;;;;;4.50;3.50;;;;;;;;5056599;28;45572;-86
2021/10/02 14:04:58;;;;;;;;;4.25;4.25;;;;;;;;5051060;28;45490;-86
2021/10/02 14:07:23;;;;;;;;;8.25;6.00;;;;;;;;5051385;28;45450;-87
2021/10/02 14:09:48;;;;;;;;;3.75;3.75;;;;;;;;5045305;28;45420;-87
2021/10/02 14:12:14;;;;;;;;;8.00;6.33;;;;;;;;5051290;28;45409;-88
2021/10/02 14:14:42;;;;;;;;;5.00;5.00;;;;;;;;5049226;28;48115;-87
2021/10/02 14:17:07;;;;;;;;;4.75;4.00;;;;;;;;5044449;28;45378;-87
2021/10/02 14:19:33;;;;;;;;;6.25;5.00;;;;;;;;5043171;28;45203;-87
2021/10/02 14:21:58;;;;;;;;;6.00;4.25;;;;;;;;5042057;28;45311;-87
2021/10/02 14:24:23;;;;;;;;;5.00;4.33;;;;;;;;5041466;28;45272;-87
2021/10/02 14:26:49;;;;;;;;;5.33;4.33;;;;;;;;5040831;28;45216;-87
2021/10/02 14:29:14;;;;;;;;;5.50;5.50;;;;;;;;5038539;28;45804;-87
2021/10/02 14:31:39;;;;;;;;;7.75;6.50;;;;;;;;5040682;28;45549;-87
2021/10/02 14:34:07;;;;;;;;;6.50;6.00;;;;;;;;5040696;28;45310;-87
2021/10/02 14:36:32;;;;;;;;;7.25;5.25;;;;;;;;5040360;28;45493;-87
2021/10/02 14:38:58;;;;;;;;;6.00;6.00;;;;;;;;5048432;28;45351;-87
2021/10/02 14:41:25;;;;;;;;;7.33;5.00;;;;;;;;5042126;28;45364;-87
2021/10/02 14:43:53;;;;;;;;;8.50;6.25;;;;;;;;5045637;28;46273;-86
2021/10/02 14:46:21;;;;;;;;;6.75;6.75;;;;;;;;5044375;28;45339;-86
2021/10/02 14:48:47;;;;;;;;;7.00;5.50;;;;;;;;5044122;28;45404;-86
2021/10/02 14:51:12;;;;;;;;;4.75;4.75;;;;;;;;5045298;28;45374;-86
2021/10/02 14:53:41;;;;;;;;;6.50;6.25;;;;;;;;5047781;28;45372;-85
2021/10/02 14:56:07;;;;;;;;;6.75;5.00;;;;;;;;5050766;28;45467;-85
2021/10/02 14:58:33;;;;;;;;;7.00;5.75;;;;;;;;5044798;28;45499;-86
2021/10/02 15:00:59;;;;;;;;;6.00;5.00;;;;;;;;5042912;28;45481;-86
2021/10/02 15:03:24;;;;;;;;;4.75;4.75;;;;;;;;5045247;28;46336;-86
2021/10/02 15:05:50;;;;;;;;;8.25;4.00;;;;;;;;5033584;28;45324;-86
2021/10/02 15:08:16;;;;;;;;;5.25;5.25;;;;;;;;5032140;28;45361;-85
2021/10/02 15:10:46;;;;;;;;;6.75;5.75;;;;;;;;5034866;28;45187;-86
2021/10/02 15:13:11;;;;;;;;;6.25;6.00;;;;;;;;5047351;28;47220;-87
2021/10/02 15:15:36;;;;;;;;;6.75;6.00;;;;;;;;5051565;28;45408;-86
2021/10/02 15:18:02;;;;;;;;;7.00;4.00;;;;;;;;5049349;28;45333;-87
2021/10/02 15:20:27;;;;;;;;;4.75;4.00;;;;;;;;5046355;28;45386;-87
2021/10/02 15:22:57;;;;;;;;;5.75;5.50;;;;;;;;5046952;28;46103;-87
2021/10/02 15:25:25;;;;;;;;;4.75;4.25;;;;;;;;5042642;28;45778;-86
2021/10/02 15:27:51;;;;;;;;;6.50;4.75;;;;;;;;5032376;28;45510;-86
2021/10/02 15:30:16;;;;;;;;;3.33;3.00;;;;;;;;5045600;28;45451;-85
2021/10/02 15:32:42;;;;;;;;;5.25;5.25;;;;;;;;5046212;28;46592;-86
2021/10/02 15:35:08;;;;;;;;;8.25;5.00;;;;;;;;5049915;28;45342;-84